Time;durP1;ratioP1;P1;durP2;ratioP2;P2;SDS_P1;SDS_P2;PMS_P1;PMS_P2;Temp;Humidity;BMP_temperature;BMP_pressure;BME280_temperature;BME280_humidity;BME280_pressure;Samples;Min_cycle;Max_cycle;Signal;HPM_P1;HPM_P2
2024/02/15 00:02:01;;;;;;;8.55;2.55;;;;;;;19.03;55.85;101505.47;4926304;28;20062;-61
2024/02/15 00:04:26;;;;;;;6.38;2.72;;;;;;;19.03;55.33;101506.31;4926613;29;20059;-62
2024/02/15 00:06:52;;;;;;;8.63;2.60;;;;;;;19.05;55.77;101511.56;4926287;29;20032;-61
2024/02/15 00:09:18;;;;;;;8.18;3.17;;;;;;;19.11;56.14;101508.19;4924915;29;20031;-61
2024/02/15 00:11:43;;;;;;;6.00;2.70;;;;;;;19.11;55.77;101503.59;4927887;29;20496;-61
2024/02/15 00:14:08;;;;;;;8.25;3.33;;;;;;;19.12;55.88;101502.56;4925281;29;20100;-61
2024/02/15 00:16:35;;;;;;;7.45;3.10;;;;;;;19.13;55.94;101507.00;4925422;29;20031;-66
2024/02/15 00:19:01;;;;;;;5.93;2.50;;;;;;;19.15;55.83;101509.56;4928403;29;20036;-64
2024/02/15 00:21:27;;;;;;;9.00;3.17;;;;;;;19.15;55.68;101509.56;4945686;28;20036;-66
2024/02/15 00:23:55;;;;;;;9.55;3.58;;;;;;;19.15;55.62;101499.53;4910109;29;20492;-61
2024/02/15 00:26:21;;;;;;;5.13;2.47;;;;;;;19.15;55.44;101504.94;4927280;29;20039;-62
2024/02/15 00:28:46;;;;;;;8.23;3.20;;;;;;;19.15;55.85;101509.56;4925959;28;20062;-62
2024/02/15 00:31:12;;;;;;;8.68;2.60;;;;;;;19.16;55.89;101506.66;4925377;29;20119;-62
2024/02/15 00:33:38;;;;;;;6.88;2.50;;;;;;;19.15;56.05;101507.66;4934770;29;20083;-61
2024/02/15 00:36:04;;;;;;;6.03;2.55;;;;;;;19.17;55.82;101507.53;4935239;29;20067;-61
2024/02/15 00:38:31;;;;;;;4.80;2.55;;;;;;;19.18;55.13;101509.19;4935929;29;20027;-61
2024/02/15 00:40:56;;;;;;;4.50;2.45;;;;;;;19.16;55.43;101503.94;4918649;29;20444;-62
2024/02/15 00:43:22;;;;;;;9.50;2.58;;;;;;;19.18;55.38;101507.34;4936246;28;20535;-61
2024/02/15 00:45:47;;;;;;;6.60;2.40;;;;;;;19.20;55.36;101501.75;4935993;28;20523;-61
2024/02/15 00:48:13;;;;;;;8.52;2.65;;;;;;;19.22;55.50;101493.41;4934985;29;20039;-62
2024/02/15 00:50:38;;;;;;;3.72;2.22;;;;;;;19.23;56.09;101496.00;4936109;28;20089;-61
2024/02/15 00:53:04;;;;;;;7.30;2.50;;;;;;;19.24;55.50;101491.38;4935061;29;20032;-61
2024/02/15 00:55:29;;;;;;;8.55;2.75;;;;;;;19.25;55.84;101493.09;4934766;29;20392;-61
2024/02/15 00:57:54;;;;;;;2.92;2.00;;;;;;;19.26;55.49;101497.50;4935684;28;20044;-61
2024/02/15 01:00:20;;;;;;;12.13;2.90;;;;;;;19.23;55.39;101485.13;4918584;29;20043;-62
2024/02/15 01:02:45;;;;;;;5.82;2.42;;;;;;;19.23;55.40;101489.69;4934563;29;20031;-62
2024/02/15 01:05:11;;;;;;;8.20;3.00;;;;;;;19.23;55.27;101496.00;4935920;28;20119;-62
2024/02/15 01:07:36;;;;;;;7.18;3.60;;;;;;;19.25;55.33;101491.22;4934862;29;20036;-61
2024/02/15 01:10:03;;;;;;;6.40;2.53;;;;;;;19.24;55.41;101491.38;4935033;29;20039;-61
2024/02/15 01:12:29;;;;;;;6.72;2.53;;;;;;;19.24;55.34;101485.94;4934786;29;20039;-61
2024/02/15 01:14:55;;;;;;;6.20;2.45;;;;;;;19.24;55.25;101485.94;4936053;28;20032;-61
2024/02/15 01:17:20;;;;;;;6.88;2.88;;;;;;;19.23;55.12;101481.56;4934326;29;20035;-61
2024/02/15 01:19:46;;;;;;;9.82;2.92;;;;;;;19.25;55.61;101482.22;4935670;28;20044;-61
2024/02/15 01:22:11;;;;;;;11.07;2.67;;;;;;;19.24;55.17;101475.06;4918408;29;20066;-61
2024/02/15 01:24:36;;;;;;;11.65;2.58;;;;;;;19.25;54.93;101477.63;4935576;28;20059;-61
2024/02/15 01:27:02;;;;;;;6.22;2.20;;;;;;;19.27;55.06;101480.16;4935409;28;20039;-62
2024/02/15 01:29:27;;;;;;;9.77;2.47;;;;;;;19.25;55.60;101466.78;4934364;29;20040;-61
2024/02/15 01:31:52;;;;;;;4.82;2.10;;;;;;;19.27;55.41;101472.03;4934367;29;20028;-62
2024/02/15 01:34:18;;;;;;;6.28;2.25;;;;;;;19.27;55.49;101470.16;4931980;29;20036;-61
2024/02/15 01:36:43;;;;;;;12.38;2.97;;;;;;;19.31;55.01;101470.69;4915227;29;20032;-61
2024/02/15 01:39:09;;;;;;;7.05;2.45;;;;;;;19.27;54.93;101464.72;4916289;29;20040;-62
2024/02/15 01:41:34;;;;;;;5.97;2.45;;;;;;;19.27;55.30;101464.72;4916773;29;20381;-61
2024/02/15 01:44:00;;;;;;;7.25;2.65;;;;;;;19.29;55.61;101472.72;4931352;29;20062;-62
2024/02/15 01:46:25;;;;;;;7.50;2.55;;;;;;;19.30;55.08;101468.97;4915419;29;20055;-62
2024/02/15 01:48:51;;;;;;;14.63;2.60;;;;;;;19.30;55.44;101469.81;4915232;29;20504;-61
2024/02/15 01:51:18;;;;;;;6.50;2.67;;;;;;;19.27;55.45;101466.59;4916344;29;20056;-61
2024/02/15 01:53:43;;;;;;;7.97;2.47;;;;;;;19.32;55.82;101469.66;4917043;29;20032;-62
2024/02/15 01:56:12;;;;;;;6.45;2.25;;;;;;;19.31;55.40;101465.25;4903083;29;20515;-61
2024/02/15 01:58:40;;;;;;;5.22;2.20;;;;;;;19.31;55.54;101459.81;4918714;29;20461;-62
2024/02/15 02:01:06;;;;;;;12.80;2.42;;;;;;;19.29;54.77;101462.69;4903323;29;20044;-61
2024/02/15 02:03:31;;;;;;;21.38;2.60;;;;;;;19.29;54.87;101451.00;4920755;29;20044;-63
2024/02/15 02:05:57;;;;;;;6.60;3.00;;;;;;;19.31;55.05;101454.38;4918792;29;20440;-61
2024/02/15 02:08:22;;;;;;;7.30;2.00;;;;;;;19.31;55.26;101459.81;4918871;29;20036;-62
2024/02/15 02:10:47;;;;;;;10.95;2.22;;;;;;;19.34;55.29;101449.47;4934686;29;20051;-63
2024/02/15 02:13:13;;;;;;;3.85;1.85;;;;;;;19.32;55.42;101446.03;4919109;29;20031;-62
2024/02/15 02:15:39;;;;;;;5.43;2.45;;;;;;;19.29;55.22;101435.50;4919047;29;20032;-61
2024/02/15 02:18:09;;;;;;;6.80;1.80;;;;;;;19.28;55.17;101436.56;4920129;29;20024;-61
2024/02/15 02:20:35;;;;;;;6.20;2.03;;;;;;;19.31;55.77;101433.50;4920080;29;20024;-61
2024/02/15 02:23:08;;;;;;;6.00;1.85;;;;;;;19.28;55.46;101425.69;4922484;29;20038;-62
2024/02/15 02:25:34;;;;;;;;;;;;;;;19.31;55.10;101422.63;4921808;29;20027;-61
2024/02/15 02:28:00;;;;;;;4.78;1.80;;;;;;;19.32;54.80;101423.47;4918502;29;20287;-62
2024/02/15 02:30:29;;;;;;;7.30;2.58;;;;;;;19.29;55.46;101413.78;4918258;29;20024;-61
2024/02/15 02:32:55;;;;;;;2.42;1.70;;;;;;;19.31;54.83;101410.91;4934195;29;20039;-61
2024/02/15 02:35:20;;;;;;;6.43;1.75;;;;;;;19.30;55.76;101404.63;4918252;29;20032;-62
2024/02/15 02:37:46;;;;;;;7.25;2.90;;;;;;;19.33;54.90;101400.72;4918205;29;20111;-62
2024/02/15 02:40:14;;;;;;;7.32;2.08;;;;;;;19.34;54.92;101405.13;4918032;29;20032;-61
2024/02/15 02:42:55;;;;;;;8.85;2.15;;;;;;;19.35;54.90;101396.78;4918567;29;20040;-61
2024/02/15 02:45:22;;;;;;;3.53;1.92;;;;;;;19.36;55.10;101393.06;4918165;29;20099;-61
2024/02/15 02:47:51;;;;;;;4.00;1.42;;;;;;;19.35;55.00;101393.22;4919315;29;20039;-61
2024/02/15 02:50:17;;;;;;;7.95;1.98;;;;;;;19.35;55.01;101401.38;4918262;29;20037;-65
2024/02/15 02:52:44;;;;;;;6.68;1.80;;;;;;;19.34;55.29;101388.84;4934007;29;20028;-66
2024/02/15 02:55:09;;;;;;;5.70;1.67;;;;;;;19.37;55.48;101396.66;4902308;29;20060;-66
2024/02/15 02:57:38;;;;;;;5.25;1.13;;;;;;;19.39;55.00;101397.34;4918030;29;20063;-66
2024/02/15 03:00:07;;;;;;;7.78;1.85;;;;;;;19.39;55.54;101392.75;4919188;29;20181;-66
2024/02/15 03:02:35;;;;;;;6.55;1.88;;;;;;;19.36;55.33;101378.63;4919210;29;20119;-66
2024/02/15 03:05:03;;;;;;;8.73;2.03;;;;;;;19.36;55.12;101384.06;4917768;29;20040;-66
2024/02/15 03:07:28;;;;;;;5.00;1.88;;;;;;;19.36;55.46;101389.50;4917693;29;20040;-65
2024/02/15 03:09:53;;;;;;;4.72;1.40;;;;;;;19.34;55.15;101384.25;4919431;29;20575;-65
2024/02/15 03:12:19;;;;;;;3.40;1.65;;;;;;;19.37;54.58;101385.78;4926117;29;20091;-65
2024/02/15 03:14:45;;;;;;;7.35;1.20;;;;;;;19.34;54.48;101377.97;4933482;29;20125;-66
2024/02/15 03:17:11;;;;;;;6.90;1.45;;;;;;;19.36;55.53;101386.78;4917796;29;20043;-65
2024/02/15 03:19:36;;;;;;;4.15;1.10;;;;;;;19.37;55.01;101380.34;4931572;29;20035;-65
2024/02/15 03:22:01;;;;;;;5.25;1.65;;;;;;;19.39;55.02;101391.91;4937923;29;20040;-65
2024/02/15 03:24:27;;;;;;;4.63;1.40;;;;;;;19.39;54.33;101383.75;4936573;29;20040;-65
2024/02/15 03:26:55;;;;;;;9.30;2.55;;;;;;;19.39;54.82;101378.31;4936364;29;20040;-66
2024/02/15 03:29:21;;;;;;;6.85;1.50;;;;;;;19.41;54.68;101384.41;4937448;29;20043;-65
2024/02/15 03:31:47;;;;;;;3.63;1.15;;;;;;;19.39;54.38;101375.59;4936394;29;20399;-66
2024/02/15 03:34:14;;;;;;;5.68;1.40;;;;;;;19.40;54.60;101369.16;4937173;29;20043;-65
2024/02/15 03:36:39;;;;;;;10.75;1.50;;;;;;;19.37;54.95;101366.75;4937533;29;20115;-65
2024/02/15 03:39:06;;;;;;;13.38;2.30;;;;;;;19.40;54.43;101377.31;4937449;29;20127;-66
2024/02/15 03:41:32;;;;;;;9.27;2.47;;;;;;;19.41;54.65;101373.56;4937085;29;20047;-66
2024/02/15 03:43:59;;;;;;;4.97;1.48;;;;;;;19.40;54.43;101369.16;4937111;29;20031;-65
2024/02/15 03:46:24;;;;;;;5.47;1.38;;;;;;;19.42;54.08;101375.25;4936113;29;20043;-65
2024/02/15 03:48:49;;;;;;;6.45;1.40;;;;;;;19.44;53.94;101375.94;4937334;29;20043;-65
2024/02/15 03:51:23;;;;;;;6.97;1.45;;;;;;;19.46;54.39;101382.03;4937380;29;20143;-66
2024/02/15 03:53:48;;;;;;;4.43;2.17;;;;;;;19.46;54.36;101384.75;4937304;29;20064;-66
2024/02/15 03:56:14;;;;;;;5.75;1.85;;;;;;;19.46;53.88;101382.88;4935743;29;20063;-65
2024/02/15 03:58:39;;;;;;;6.63;1.27;;;;;;;19.51;54.52;101377.81;4936098;29;20119;-65
2024/02/15 04:01:06;;;;;;;6.55;1.42;;;;;;;19.50;53.78;101384.25;4937163;29;20043;-62
2024/02/15 04:03:34;;;;;;;3.95;0.85;;;;;;;19.51;53.98;101380.53;4936152;29;20530;-62
2024/02/15 04:06:00;;;;;;;13.00;1.48;;;;;;;19.52;54.06;101373.19;4936934;29;20040;-62
2024/02/15 04:08:26;;;;;;;2.72;1.17;;;;;;;19.49;53.75;101376.25;4919739;29;20039;-62
2024/02/15 04:10:52;;;;;;;4.95;1.17;;;;;;;19.49;53.48;101376.25;4936883;29;20172;-61
2024/02/15 04:13:17;;;;;;;3.33;1.23;;;;;;;19.51;53.69;101380.53;4935599;29;20380;-62
2024/02/15 04:15:43;;;;;;;3.25;1.25;;;;;;;19.49;53.72;101376.25;4919156;29;20072;-61
2024/02/15 04:18:12;;;;;;;5.47;1.15;;;;;;;19.47;53.71;101376.44;4935632;29;20039;-61
2024/02/15 04:20:37;;;;;;;5.55;1.35;;;;;;;19.48;54.23;101380.00;4936788;29;20043;-62
2024/02/15 04:23:04;;;;;;;2.58;1.35;;;;;;;19.49;54.36;101376.25;4935350;29;20036;-62
2024/02/15 04:25:31;;;;;;;6.25;1.00;;;;;;;19.49;53.28;101387.97;4936507;29;20032;-62
2024/02/15 04:27:57;;;;;;;2.67;0.80;;;;;;;19.46;53.57;101387.47;4936381;29;20043;-61
2024/02/15 04:30:23;;;;;;;3.80;0.80;;;;;;;19.43;54.19;101388.66;4935405;29;20044;-61
2024/02/15 04:32:49;;;;;;;6.57;1.25;;;;;;;19.41;54.20;101384.41;4936672;29;20035;-62
2024/02/15 04:35:14;;;;;;;1.70;0.88;;;;;;;19.41;54.09;101396.16;4935280;29;20039;-62
2024/02/15 04:37:40;;;;;;;5.80;1.92;;;;;;;19.36;53.84;101386.78;4936445;29;20042;-62
2024/02/15 04:40:13;;;;;;;5.65;1.25;;;;;;;19.34;53.77;101384.25;4936486;29;20032;-61
2024/02/15 04:42:44;;;;;;;;;;;;;;;19.32;53.56;101390.88;4937028;29;20044;-61
2024/02/15 04:45:11;;;;;;;3.78;1.88;;;;;;;19.28;53.85;101386.81;4935486;29;19918;-62
2024/02/15 04:47:36;;;;;;;3.08;1.08;;;;;;;19.22;54.38;101374.75;4931891;29;20464;-61
2024/02/15 04:50:02;;;;;;;4.97;1.25;;;;;;;19.22;54.36;101382.03;4900535;29;20036;-62
2024/02/15 04:52:27;;;;;;;6.65;1.40;;;;;;;19.19;54.20;101373.22;4917295;29;20500;-61
2024/02/15 04:54:58;;;;;;;6.30;1.30;;;;;;;19.19;53.90;101366.94;4917043;29;20457;-62
2024/02/15 04:57:23;;;;;;;7.45;1.00;;;;;;;19.15;54.31;101358.28;4915807;29;20028;-62
2024/02/15 04:59:49;;;;;;;2.17;1.17;;;;;;;19.13;54.73;101365.75;4900130;29;20038;-61
2024/02/15 05:02:15;;;;;;;4.93;1.20;;;;;;;19.11;54.02;101350.66;4917195;29;20052;-61
2024/02/15 05:04:42;;;;;;;3.67;1.00;;;;;;;19.08;54.65;101351.84;4916819;29;20036;-61
2024/02/15 05:07:08;;;;;;;1.95;0.85;;;;;;;19.06;53.85;101342.19;4900420;29;20043;-61
2024/02/15 05:09:34;;;;;;;4.10;0.90;;;;;;;19.04;54.07;101334.19;4915674;29;20515;-62
2024/02/15 05:12:02;;;;;;;8.27;1.98;;;;;;;19.05;54.29;101335.91;4906265;29;20055;-61
2024/02/15 05:14:27;;;;;;;4.43;2.28;;;;;;;19.06;54.59;101329.47;4950433;29;20492;-61
2024/02/15 05:16:53;;;;;;;3.58;1.50;;;;;;;19.07;53.93;101333.84;4934779;29;20110;-62
2024/02/15 05:19:18;;;;;;;3.60;1.80;;;;;;;19.10;54.54;101338.09;4934709;29;20096;-61
2024/02/15 05:21:45;;;;;;;6.75;1.52;;;;;;;19.14;54.65;101337.59;4934803;29;20472;-61
2024/02/15 05:24:14;;;;;;;4.10;1.63;;;;;;;19.15;54.65;101336.56;4934458;29;20024;-61
2024/02/15 05:26:46;;;;;;;6.80;1.63;;;;;;;19.20;54.57;101327.91;4934689;29;20031;-63
2024/02/15 05:29:12;;;;;;;11.73;1.77;;;;;;;19.21;54.47;101317.91;4940328;29;20032;-61
2024/02/15 05:31:38;;;;;;;7.63;1.60;;;;;;;19.25;54.61;101325.50;4938850;29;20106;-62
2024/02/15 05:34:04;;;;;;;7.90;1.25;;;;;;;19.27;54.18;101317.19;4954974;28;20052;-61
2024/02/15 05:36:30;;;;;;;5.57;1.15;;;;;;;19.28;53.83;101324.31;4939200;29;20031;-62
2024/02/15 05:38:57;;;;;;;2.83;1.55;;;;;;;19.30;54.65;101319.56;4923539;29;20047;-61
2024/02/15 05:41:22;;;;;;;4.40;0.85;;;;;;;19.33;54.79;101321.91;4933040;29;20395;-61
2024/02/15 05:43:53;;;;;;;3.92;1.00;;;;;;;19.34;53.85;101318.19;4922572;29;20164;-61
2024/02/15 05:46:18;;;;;;;4.70;1.25;;;;;;;19.37;54.03;101317.84;4919389;29;20033;-61
2024/02/15 05:48:44;;;;;;;3.13;1.08;;;;;;;19.39;53.81;101327.56;4919466;29;20605;-61
2024/02/15 05:51:09;;;;;;;6.03;1.35;;;;;;;19.41;54.02;101327.38;4919338;29;20103;-61
2024/02/15 05:53:38;;;;;;;4.05;1.30;;;;;;;19.42;53.98;101323.63;4920521;29;20036;-61
2024/02/15 05:56:05;;;;;;;3.55;1.52;;;;;;;19.44;53.77;101318.88;4919445;29;20131;-61
2024/02/15 05:58:31;;;;;;;5.13;0.80;;;;;;;19.44;53.66;101317.00;4935146;29;20028;-61
2024/02/15 06:01:01;;;;;;;3.92;1.27;;;;;;;19.43;53.83;101312.56;4920224;29;20036;-61
2024/02/15 06:03:31;;;;;;;3.70;0.88;;;;;;;19.45;54.15;101312.41;4919812;29;20087;-61
2024/02/15 06:05:58;;;;;;;5.68;1.08;;;;;;;19.46;53.67;101316.81;4920265;29;20046;-62
2024/02/15 06:08:27;;;;;;;1.55;0.88;;;;;;;19.50;53.48;101315.47;4919281;29;20083;-62
2024/02/15 06:10:53;;;;;;;5.25;1.05;;;;;;;19.53;53.53;101315.09;4918810;29;20028;-61
2024/02/15 06:13:19;;;;;;;1.67;1.27;;;;;;;19.54;53.67;101320.34;4918843;29;20047;-62
2024/02/15 06:15:44;;;;;;;5.35;1.10;;;;;;;19.55;53.75;101327.50;4918800;29;20032;-62
2024/02/15 06:18:14;;;;;;;7.70;1.05;;;;;;;19.54;53.68;101331.22;4918710;29;20042;-62
2024/02/15 06:20:40;;;;;;;4.07;1.42;;;;;;;19.45;54.03;101326.00;4920295;29;20028;-61
2024/02/15 06:23:07;;;;;;;1.30;1.02;;;;;;;19.47;53.78;101329.38;4903010;29;20091;-61
2024/02/15 06:25:33;;;;;;;3.47;1.20;;;;;;;19.42;53.60;101337.22;4918771;29;20091;-61
2024/02/15 06:28:02;;;;;;;5.57;2.17;;;;;;;19.42;53.93;101339.94;4919698;29;20448;-62
2024/02/15 06:41:24;;;;;;;4.65;1.17;;;;;;;19.35;54.07;101342.47;4919417;29;20058;-61
2024/02/15 06:43:49;;;;;;;3.70;1.40;;;;;;;19.31;53.95;101332.97;4918261;29;20489;-62
2024/02/15 06:46:14;;;;;;;4.70;0.90;;;;;;;19.29;54.34;101342.31;4918119;29;20040;-63
2024/02/15 06:48:44;;;;;;;4.55;1.05;;;;;;;19.28;53.90;101324.31;4918121;29;20040;-63
2024/02/15 06:51:14;;;;;;;1.75;0.70;;;;;;;19.28;54.00;101335.19;4918953;29;20492;-63
2024/02/15 06:53:39;;;;;;;2.55;0.77;;;;;;;19.23;53.99;101322.13;4918328;29;20036;-63
2024/02/15 06:56:05;;;;;;;4.55;1.15;;;;;;;19.18;53.97;101314.47;4900664;29;20024;-63
2024/02/15 06:58:30;;;;;;;2.60;0.70;;;;;;;19.17;54.24;101322.81;4917711;29;20035;-63
2024/02/15 07:00:56;;;;;;;3.95;0.98;;;;;;;19.13;54.25;101321.44;4918031;29;20048;-62
2024/02/15 07:03:22;;;;;;;2.20;1.35;;;;;;;19.07;53.95;101316.72;4917818;29;20468;-62
2024/02/15 07:05:48;;;;;;;2.63;1.20;;;;;;;19.08;54.13;101307.56;4918964;29;20102;-62
2024/02/15 07:08:14;;;;;;;5.75;2.08;;;;;;;19.05;54.09;101314.19;4918172;29;20103;-62
2024/02/15 07:10:39;;;;;;;3.95;0.90;;;;;;;19.07;54.18;101306.69;4917784;29;20024;-62
2024/02/15 07:13:08;;;;;;;5.25;0.60;;;;;;;19.08;54.33;101302.97;4917797;29;20024;-62
2024/02/15 07:15:37;;;;;;;3.95;1.65;;;;;;;19.11;54.16;101294.47;4918778;29;20024;-62
2024/02/15 07:18:06;;;;;;;3.80;1.20;;;;;;;19.16;54.13;101302.94;4917320;29;20032;-62
2024/02/15 07:20:33;;;;;;;6.35;1.75;;;;;;;19.21;53.13;101309.75;4917580;29;20032;-62
2024/02/15 07:22:58;;;;;;;4.72;1.67;;;;;;;19.24;54.17;101306.66;4917475;29;20036;-62
2024/02/15 07:25:23;;;;;;;3.42;1.10;;;;;;;19.29;54.29;101298.84;4917600;29;20390;-62
2024/02/15 07:27:49;;;;;;;3.83;1.15;;;;;;;19.36;53.85;101310.72;4918886;29;20032;-62
2024/02/15 07:30:14;;;;;;;6.50;1.40;;;;;;;19.38;53.53;101300.50;4917556;29;20385;-62
2024/02/15 07:32:40;;;;;;;3.55;1.20;;;;;;;19.43;52.77;101306.31;4916926;29;20527;-62
2024/02/15 07:35:07;;;;;;;5.57;1.42;;;;;;;19.47;53.11;101302.22;4917157;29;20519;-62
2024/02/15 07:37:33;;;;;;;8.55;1.60;;;;;;;19.51;53.52;101309.00;4917735;29;20435;-62
2024/02/15 07:39:59;;;;;;;4.15;2.17;;;;;;;19.53;53.56;101302.38;4918360;29;20040;-62
2024/02/15 07:42:25;;;;;;;2.40;0.98;;;;;;;19.57;53.09;101302.88;4917257;29;20035;-62
2024/02/15 07:44:52;;;;;;;6.05;1.10;;;;;;;19.62;53.40;101300.47;4917485;29;20063;-62
2024/02/15 07:47:20;;;;;;;1.95;0.80;;;;;;;19.68;53.29;101305.22;4917147;29;20040;-62
2024/02/15 07:49:46;;;;;;;1.30;0.80;;;;;;;19.68;53.22;101300.59;4918510;29;20087;-62
2024/02/15 07:52:13;;;;;;;6.68;0.98;;;;;;;19.73;52.96;101300.94;4916334;29;20036;-62
2024/02/15 07:54:39;;;;;;;4.00;1.00;;;;;;;19.79;52.50;101302.09;4917389;29;20029;-62
2024/02/15 07:57:04;;;;;;;4.43;0.90;;;;;;;19.83;53.24;101297.97;4918194;29;20100;-62
2024/02/15 07:59:30;;;;;;;5.13;0.70;;;;;;;19.86;52.99;101286.75;4917056;29;20024;-62
2024/02/15 08:01:55;;;;;;;3.05;0.70;;;;;;;19.92;52.85;101291.47;4916768;29;20055;-62
2024/02/15 08:04:21;;;;;;;2.63;0.77;;;;;;;19.95;52.85;101291.13;4917179;29;20536;-62
2024/02/15 08:06:48;;;;;;;3.70;1.55;;;;;;;20.01;53.00;101301.28;4916948;29;20392;-63
2024/02/15 08:09:17;;;;;;;6.57;1.67;;;;;;;20.03;52.46;101299.25;4917189;29;20050;-62
2024/02/15 08:11:43;;;;;;;4.30;0.90;;;;;;;20.08;52.21;101302.25;4918173;29;20448;-63
2024/02/15 08:14:10;;;;;;;4.53;1.23;;;;;;;20.12;52.00;101298.16;4916667;29;20043;-62
2024/02/15 08:16:37;;;;;;;2.65;0.75;;;;;;;20.18;52.29;101302.88;4917879;29;20563;-62
2024/02/15 08:19:05;;;;;;;6.13;1.08;;;;;;;20.23;52.48;101297.75;4917748;29;20559;-62
2024/02/15 08:21:37;;;;;;;4.00;1.50;;;;;;;20.28;52.24;101299.97;4916866;29;20043;-62
2024/02/15 08:24:06;;;;;;;3.88;0.63;;;;;;;20.39;52.10;101301.41;4917525;29;20047;-62
2024/02/15 08:26:32;;;;;;;4.50;1.38;;;;;;;20.43;51.54;101295.44;4901163;29;20056;-62
2024/02/15 08:28:58;;;;;;;1.50;0.85;;;;;;;20.49;51.60;101294.69;4917492;29;20036;-62
2024/02/15 08:31:24;;;;;;;1.95;1.00;;;;;;;20.53;51.66;101306.91;4917603;29;20547;-62
2024/02/15 08:33:49;;;;;;;8.55;1.42;;;;;;;20.58;50.97;101299.03;4931865;29;20052;-62
2024/02/15 08:36:15;;;;;;;3.83;0.98;;;;;;;20.60;51.68;101294.25;4917450;29;20043;-62
2024/02/15 08:38:41;;;;;;;4.80;0.85;;;;;;;20.64;51.76;101297.47;4917726;29;20048;-62
2024/02/15 08:41:07;;;;;;;3.75;0.90;;;;;;;20.64;50.99;101294.75;4917430;29;20164;-62
2024/02/15 08:43:33;;;;;;;2.80;0.57;;;;;;;20.65;51.07;101296.44;4916405;29;20036;-62
2024/02/15 08:45:59;;;;;;;3.38;0.60;;;;;;;20.70;51.38;101288.56;4916078;29;20559;-62
2024/02/15 08:48:24;;;;;;;2.72;0.73;;;;;;;20.70;50.96;101280.41;4916352;29;20115;-62
2024/02/15 08:50:51;;;;;;;2.47;0.60;;;;;;;20.74;50.30;101279.00;4916850;29;20035;-62
2024/02/15 08:53:18;;;;;;;4.53;0.70;;;;;;;20.76;51.05;101274.22;4916727;29;20123;-62
2024/02/15 08:55:44;;;;;;;0.63;0.50;;;;;;;20.79;50.31;101274.72;4917185;29;20032;-63
2024/02/15 08:58:10;;;;;;;4.85;0.32;;;;;;;20.82;50.09;101279.78;4918481;29;20044;-62
2024/02/15 09:00:37;;;;;;;2.40;0.60;;;;;;;20.84;50.26;101290.47;4917641;29;20036;-62
2024/02/15 09:03:02;;;;;;;5.50;0.85;;;;;;;20.85;50.67;101279.38;4918228;29;20036;-62
2024/02/15 09:05:28;;;;;;;4.20;0.73;;;;;;;20.84;50.18;101279.59;4918275;29;20091;-62
2024/02/15 09:07:54;;;;;;;3.20;0.80;;;;;;;20.88;49.86;101283.66;4916339;29;20572;-62
2024/02/15 09:10:22;;;;;;;0.98;0.68;;;;;;;20.83;49.56;101275.16;4916544;29;20043;-64
2024/02/15 09:12:48;;;;;;;3.50;0.63;;;;;;;20.88;50.44;101292.63;4917503;29;20411;-62
2024/02/15 09:15:14;;;;;;;3.75;0.45;;;;;;;20.88;50.26;101281.75;4900339;29;20527;-62
2024/02/15 09:17:40;;;;;;;4.22;0.90;;;;;;;20.91;49.51;101288.69;4915605;29;20061;-63
2024/02/15 09:20:14;;;;;;;5.35;0.40;;;;;;;20.93;50.09;101281.22;4916956;29;20118;-62
2024/02/15 09:22:49;;;;;;;1.13;0.65;;;;;;;20.94;50.15;101277.44;4900350;29;20044;-62
2024/02/15 09:25:15;;;;;;;1.90;0.70;;;;;;;20.96;49.67;101272.66;4915504;29;20040;-62
2024/02/15 09:27:42;;;;;;;2.30;0.70;;;;;;;21.01;49.57;101280.28;4917259;29;20043;-63
2024/02/15 09:30:09;;;;;;;0.93;0.52;;;;;;;21.04;49.48;101278.03;4916812;29;20401;-62
2024/02/15 09:32:41;;;;;;;2.10;0.50;;;;;;;21.10;49.21;101276.47;4931273;29;20032;-62
2024/02/15 09:35:08;;;;;;;3.92;0.82;;;;;;;21.13;48.91;101266.06;4899883;29;20036;-61
2024/02/15 09:37:55;;;;;;;2.17;0.50;;;;;;;21.19;49.16;101262.56;4915635;29;20075;-62
2024/02/15 09:40:20;;;;;;;1.23;0.40;;;;;;;21.38;48.86;101263.91;4916544;29;20039;-62
2024/02/15 09:42:48;;;;;;;2.58;0.90;;;;;;;21.61;48.53;101274.69;4915712;29;20111;-62
2024/02/15 09:45:14;;;;;;;2.10;0.50;;;;;;;21.82;48.56;101263.81;4915344;29;20029;-62
2024/02/15 09:47:40;;;;;;;2.95;0.80;;;;;;;22.07;47.79;101276.13;4915855;29;20028;-62
2024/02/15 09:50:11;;;;;;;1.67;0.40;;;;;;;22.28;48.18;101265.19;4915364;29;20026;-61
2024/02/15 09:52:44;;;;;;;2.25;0.63;;;;;;;22.56;47.14;101271.56;4915515;29;20075;-62
2024/02/15 09:55:13;;;;;;;3.47;0.47;;;;;;;22.86;46.81;101271.44;4916687;29;20377;-62
2024/02/15 09:57:43;;;;;;;5.10;0.60;;;;;;;23.03;46.47;101261.91;4915650;29;20028;-62
2024/02/15 10:00:13;;;;;;;4.15;0.45;;;;;;;23.06;47.28;101262.31;4915356;29;20087;-61
2024/02/15 10:02:44;;;;;;;2.40;0.60;;;;;;;23.17;46.79;101266.41;4915386;29;20040;-62
2024/02/15 10:05:12;;;;;;;3.08;0.43;;;;;;;23.25;47.00;101259.94;4916652;29;20050;-61
2024/02/15 10:07:44;;;;;;;2.78;0.57;;;;;;;23.36;46.25;101262.94;4915832;29;20032;-61
2024/02/15 10:10:23;;;;;;;1.27;0.73;;;;;;;23.44;46.14;101256.50;4915446;29;20060;-62
2024/02/15 10:12:49;;;;;;;3.10;0.30;;;;;;;23.57;46.25;101260.13;4915520;29;20104;-63
2024/02/15 10:15:30;;;;;;;2.55;0.73;;;;;;;23.70;45.78;101251.16;4917657;29;20572;-63
2024/02/15 10:17:58;;;;;;;5.00;1.15;;;;;;;23.88;45.30;101250.56;4920297;29;20040;-63
2024/02/15 10:20:27;;;;;;;4.82;0.85;;;;;;;24.07;45.06;101258.00;4920009;29;20059;-63
2024/02/15 10:23:14;;;;;;;1.77;0.93;;;;;;;24.27;44.51;101247.97;4918908;29;20083;-63
2024/02/15 10:25:40;;;;;;;1.15;0.40;;;;;;;24.53;44.84;101249.88;4934377;29;20036;-63
2024/02/15 10:28:07;;;;;;;1.90;0.38;;;;;;;24.71;44.32;101248.19;4918596;29;20056;-63
2024/02/15 10:30:43;;;;;;;2.00;0.70;;;;;;;24.86;44.33;101242.53;4918321;29;20032;-63
2024/02/15 10:33:09;;;;;;;2.75;0.60;;;;;;;24.95;44.21;101245.91;4918046;29;20136;-63
2024/02/15 10:35:36;;;;;;;2.22;0.82;;;;;;;24.95;43.97;101243.16;4918349;29;20480;-63
2024/02/15 10:38:09;;;;;;;1.38;0.40;;;;;;;24.99;43.73;101248.00;4919362;29;20040;-63
2024/02/15 10:40:35;;;;;;;5.68;0.65;;;;;;;25.09;43.84;101245.69;4918434;29;20032;-63
2024/02/15 10:43:04;;;;;;;4.15;0.60;;;;;;;25.09;43.43;101237.44;4918190;29;20100;-63
2024/02/15 10:45:36;;;;;;;5.22;0.82;;;;;;;25.13;43.06;101241.44;4919326;29;20091;-63
2024/02/15 10:48:04;;;;;;;1.25;0.60;;;;;;;25.04;43.13;101236.41;4918049;29;20051;-63
2024/02/15 10:50:30;;;;;;;5.15;1.00;;;;;;;25.00;43.13;101229.66;4918256;29;20099;-63
2024/02/15 10:52:57;;;;;;;1.63;0.30;;;;;;;24.92;43.07;101232.63;4918024;29;20514;-62
2024/02/15 10:55:40;;;;;;;2.70;0.55;;;;;;;24.90;43.24;101230.91;4934135;29;20032;-63
2024/02/15 10:58:06;;;;;;;1.48;0.32;;;;;;;24.92;43.47;101227.13;4918130;29;20028;-63
2024/02/15 11:00:39;;;;;;;5.80;0.50;;;;;;;24.99;43.16;101230.69;4918021;29;20036;-63
2024/02/15 11:03:08;;;;;;;1.60;0.65;;;;;;;25.01;42.74;101220.38;4918535;29;20036;-63
2024/02/15 11:05:37;;;;;;;3.72;0.85;;;;;;;25.13;42.72;101218.66;4918172;29;20444;-63
2024/02/15 11:08:08;;;;;;;0.85;0.30;;;;;;;25.18;42.44;101211.47;4919197;29;20044;-63
2024/02/15 11:10:34;;;;;;;4.53;0.40;;;;;;;25.22;42.54;101223.69;4918995;29;20480;-63
2024/02/15 11:13:00;;;;;;;3.95;0.38;;;;;;;25.19;42.65;101209.56;4917824;29;20055;-63
2024/02/15 11:15:46;;;;;;;6.10;0.80;;;;;;;25.19;42.33;101215.06;4901617;29;20033;-63
2024/02/15 11:18:12;;;;;;;5.95;0.70;;;;;;;25.14;42.42;101209.38;4918986;29;20044;-63
2024/02/15 11:20:38;;;;;;;4.32;0.60;;;;;;;25.18;42.06;101210.66;4917586;29;20404;-62
2024/02/15 11:23:04;;;;;;;4.15;0.60;;;;;;;25.17;42.51;101207.06;4918485;29;20420;-63
2024/02/15 11:25:39;;;;;;;4.07;0.93;;;;;;;25.18;42.07;101211.47;4918622;29;20032;-63
2024/02/15 11:28:28;;;;;;;0.90;0.30;;;;;;;25.21;42.12;101202.00;4918609;29;20040;-63
2024/02/15 11:30:57;;;;;;;2.63;0.40;;;;;;;25.17;42.00;101200.72;4918592;29;20185;-63
2024/02/15 11:33:31;;;;;;;1.85;1.13;;;;;;;25.21;41.99;101196.50;4918659;29;20528;-63
2024/02/15 11:36:06;;;;;;;3.13;0.50;;;;;;;25.27;41.31;101192.88;4918629;29;20070;-63